createdAt,value
2019-01-18T00:00:41.218Z,100646.95
2019-01-18T00:01:43.582Z,100649.17
2019-01-18T00:02:45.752Z,100645.66
2019-01-18T00:03:47.712Z,100653.45
2019-01-18T00:04:49.664Z,100656.05
2019-01-18T00:05:51.960Z,100659.42
2019-01-18T00:06:53.904Z,100659.80
2019-01-18T00:07:55.953Z,100660.56
2019-01-18T00:08:57.965Z,100663.17
2019-01-18T00:09:59.920Z,100669.28
2019-01-18T00:11:01.845Z,100672.65
2019-01-18T00:12:03.807Z,100671.73
2019-01-18T00:13:05.854Z,100673.80
2019-01-18T00:14:07.832Z,100674.95
2019-01-18T00:15:09.818Z,100679.62
2019-01-18T00:16:11.802Z,100681.30
2019-01-18T00:17:13.756Z,100682.41
2019-01-18T00:18:15.881Z,100681.50
2019-01-18T00:19:17.842Z,100681.34
2019-01-18T00:20:19.772Z,100689.53
2019-01-18T00:21:21.772Z,100692.52
2019-01-18T00:22:23.709Z,100688.08
2019-01-18T00:23:25.670Z,100693.66
2019-01-18T00:24:27.606Z,100693.89
2019-01-18T00:25:29.572Z,100693.51
2019-01-18T00:26:31.536Z,100698.55
2019-01-18T00:27:33.506Z,100701.16
2019-01-18T00:28:35.656Z,100700.23
2019-01-18T00:29:37.617Z,100706.20
2019-01-18T00:30:39.697Z,100707.89
2019-01-18T00:31:41.642Z,100713.84
2019-01-18T00:32:46.397Z,100709.03
2019-01-18T00:33:50.712Z,100714.23
2019-01-18T00:34:52.658Z,100714.42
2019-01-18T00:35:54.610Z,100712.21
2019-01-18T00:36:56.636Z,100714.81
2019-01-18T00:37:58.567Z,100717.41
2019-01-18T00:39:00.613Z,100729.48
2019-01-18T00:40:02.782Z,100727.80
2019-01-18T00:41:04.741Z,100736.14
2019-01-18T00:42:06.688Z,100736.52
2019-01-18T00:43:08.615Z,100742.25
2019-01-18T00:44:10.631Z,100742.25
2019-01-18T00:45:12.568Z,100738.92
2019-01-18T00:46:14.518Z,100740.77
2019-01-18T00:47:16.529Z,100741.67
2019-01-18T00:48:18.725Z,100747.41
2019-01-18T00:49:20.942Z,100748.87
2019-01-18T00:50:24.184Z,100751.62
2019-01-18T00:51:26.450Z,100749.55
2019-01-18T00:52:28.378Z,100753.07
2019-01-18T00:53:30.311Z,100754.52
2019-01-18T00:54:32.278Z,100755.06
2019-01-18T00:55:34.214Z,100758.38
2019-01-18T00:56:36.657Z,100757.08
2019-01-18T00:57:38.580Z,100754.09
2019-01-18T00:58:41.035Z,100758.16
2019-01-18T00:59:43.068Z,100760.37
2019-01-18T01:00:45.020Z,100763.88
2019-01-18T01:01:46.958Z,100766.48
2019-01-18T01:02:48.889Z,100765.34
2019-01-18T01:03:50.819Z,100770.53
2019-01-18T01:04:52.978Z,100771.07
2019-01-18T01:05:54.922Z,100775.89
2019-01-18T01:06:56.866Z,100777.19
2019-01-18T01:07:58.793Z,100781.47
2019-01-18T01:09:00.730Z,100791.64
2019-01-18T01:10:03.026Z,100788.89
2019-01-18T01:11:04.972Z,100794.09
2019-01-18T01:12:07.383Z,100795.92
2019-01-18T01:13:09.331Z,100798.91
2019-01-18T01:14:11.267Z,100796.16
2019-01-18T01:15:14.116Z,100796.16
2019-01-18T01:16:16.054Z,100794.47
2019-01-18T01:17:18.001Z,100803.95
2019-01-18T01:18:19.925Z,100801.73
2019-01-18T01:19:21.869Z,100804.34
2019-01-18T01:20:23.861Z,100801.36
2019-01-18T01:21:25.989Z,100809.39
2019-01-18T01:22:27.933Z,100798.98
2019-01-18T01:23:29.862Z,100803.27
2019-01-18T01:24:31.797Z,100806.25
2019-01-18T01:25:33.860Z,100804.56
2019-01-18T01:26:35.804Z,100811.45
2019-01-18T01:27:37.738Z,100808.70
2019-01-18T01:28:39.682Z,100814.28
2019-01-18T01:29:43.156Z,100813.33
2019-01-18T01:30:45.351Z,100819.48
2019-01-18T01:31:47.307Z,100814.62
2019-01-18T01:32:49.233Z,100821.13
2019-01-18T01:33:51.175Z,100823.19
2019-01-18T01:34:53.329Z,100830.07
2019-01-18T01:35:55.301Z,100835.27
2019-01-18T01:36:57.926Z,100831.75
2019-01-18T01:37:59.938Z,100834.73
2019-01-18T01:39:01.867Z,100840.31
2019-01-18T01:40:03.810Z,100835.50
2019-01-18T01:41:05.777Z,100839.40
2019-01-18T01:42:07.739Z,100848.50
2019-01-18T01:43:09.665Z,100848.50
2019-01-18T01:44:11.601Z,100848.34
2019-01-18T01:45:13.557Z,100855.00
2019-01-18T01:46:15.549Z,100850.18
2019-01-18T01:47:17.477Z,100844.98
2019-01-18T01:48:19.415Z,100850.18
2019-01-18T01:49:21.357Z,100849.80
2019-01-18T01:50:23.301Z,100848.50
2019-01-18T01:51:25.280Z,100852.39
2019-01-18T01:52:27.213Z,100850.72
2019-01-18T01:53:29.739Z,100848.11
2019-01-18T01:54:33.052Z,100850.72
2019-01-18T01:55:34.983Z,100852.94
2019-01-18T01:56:36.963Z,100859.05
2019-01-18T01:57:38.901Z,100853.85
2019-01-18T01:58:40.840Z,100849.57
2019-01-18T01:59:42.787Z,100849.19
2019-01-18T02:00:44.721Z,100851.41
2019-01-18T02:01:46.687Z,100855.88
2019-01-18T02:02:48.713Z,100850.68
2019-01-18T02:03:50.663Z,100859.78
2019-01-18T02:04:53.149Z,100860.50
2019-01-18T02:05:55.167Z,100864.59
2019-01-18T02:06:57.153Z,100863.83
2019-01-18T02:07:59.173Z,100864.75
2019-01-18T02:09:01.177Z,100865.67
2019-01-18T02:10:03.117Z,100864.37
2019-01-18T02:11:05.047Z,100866.20
2019-01-18T02:12:07.309Z,100863.98
2019-01-18T02:13:09.256Z,100868.05
2019-01-18T02:14:11.197Z,100865.29
2019-01-18T02:15:13.507Z,100864.91
2019-01-18T02:16:19.086Z,100866.20
2019-01-18T02:17:21.040Z,100865.29
2019-01-18T02:18:22.989Z,100870.87
2019-01-18T02:19:24.915Z,100870.87
2019-01-18T02:20:26.873Z,100872.55
2019-01-18T02:21:30.188Z,100868.11
2019-01-18T02:22:32.157Z,100865.52
2019-01-18T02:23:34.129Z,100864.21
2019-01-18T02:24:36.065Z,100862.72
2019-01-18T02:25:37.994Z,100867.92
2019-01-18T02:26:39.935Z,100874.42
2019-01-18T02:27:43.195Z,100874.42
2019-01-18T02:28:45.146Z,100876.87
2019-01-18T02:29:47.361Z,100875.19
2019-01-18T02:30:49.320Z,100878.93
2019-01-18T02:31:51.336Z,100885.05
2019-01-18T02:32:53.321Z,100886.19
2019-01-18T02:33:55.273Z,100884.52
2019-01-18T02:34:57.279Z,100890.86
2019-01-18T02:35:59.243Z,100893.08
2019-01-18T02:37:01.412Z,100890.47
2019-01-18T02:38:03.403Z,100889.94
2019-01-18T02:39:05.323Z,100893.68
2019-01-18T02:40:07.347Z,100894.98
2019-01-18T02:41:09.274Z,100907.06
2019-01-18T02:42:11.213Z,100898.34
2019-01-18T02:43:13.187Z,100903.16
2019-01-18T02:44:18.585Z,100898.88
2019-01-18T02:45:20.527Z,100894.83
2019-01-18T02:46:22.458Z,100898.19
2019-01-18T02:47:24.388Z,100899.11
2019-01-18T02:48:27.100Z,100901.32
2019-01-18T02:49:29.055Z,100904.45
2019-01-18T02:50:31.022Z,100899.11
2019-01-18T02:51:32.955Z,100899.48
2019-01-18T02:52:35.387Z,100895.59
2019-01-18T02:53:37.334Z,100894.28
2019-01-18T02:54:39.275Z,100902.47
2019-01-18T02:55:41.223Z,100906.37
2019-01-18T02:56:43.735Z,100905.06
2019-01-18T02:57:45.664Z,100905.06
2019-01-18T02:58:47.622Z,100908.58
2019-01-18T02:59:50.201Z,100913.24
2019-01-18T03:00:52.142Z,100905.06
2019-01-18T03:01:54.067Z,100904.30
2019-01-18T03:02:55.990Z,100906.91
2019-01-18T03:03:57.943Z,100903.92
2019-01-18T03:05:03.533Z,100907.44
2019-01-18T03:06:05.480Z,100904.84
2019-01-18T03:07:07.487Z,100900.56
2019-01-18T03:08:09.503Z,100902.78
2019-01-18T03:09:11.516Z,100898.88
2019-01-18T03:10:14.830Z,100902.02
2019-01-18T03:11:16.763Z,100900.72
2019-01-18T03:12:18.713Z,100902.40
2019-01-18T03:13:20.659Z,100905.53
2019-01-18T03:14:22.764Z,100899.41
2019-01-18T03:15:24.732Z,100906.07
2019-01-18T03:16:26.743Z,100912.19
2019-01-18T03:17:28.894Z,100909.81
2019-01-18T03:18:30.851Z,100909.97
2019-01-18T03:19:32.794Z,100913.48
2019-01-18T03:20:34.728Z,100912.73
2019-01-18T03:21:36.683Z,100912.73
2019-01-18T03:22:38.928Z,100917.55
2019-01-18T03:23:40.886Z,100922.37
2019-01-18T03:24:42.818Z,100924.97
2019-01-18T03:25:44.763Z,100927.19
2019-01-18T03:26:46.699Z,100921.06
2019-01-18T03:27:50.515Z,100925.89
2019-01-18T03:28:52.494Z,100932.39
2019-01-18T03:29:58.061Z,100933.69
2019-01-18T03:31:00.023Z,100936.28
2019-01-18T03:32:02.027Z,100941.11
2019-01-18T03:33:03.975Z,100943.89
2019-01-18T03:34:05.906Z,100945.00
2019-01-18T03:35:07.849Z,100940.56
2019-01-18T03:36:09.799Z,100945.77
2019-01-18T03:37:11.747Z,100946.30
2019-01-18T03:38:13.694Z,100941.87
2019-01-18T03:39:15.663Z,100942.78
2019-01-18T03:40:17.589Z,100943.92
2019-01-18T03:41:20.024Z,100945.77
2019-01-18T03:42:21.962Z,100946.14
2019-01-18T03:43:23.912Z,100946.14
2019-01-18T03:44:25.880Z,100950.05
2019-01-18T03:45:27.813Z,100946.53
2019-01-18T03:46:29.757Z,100946.91
2019-01-18T03:47:31.704Z,100950.42
2019-01-18T03:48:35.736Z,100953.03
2019-01-18T03:49:37.714Z,100953.79
2019-01-18T03:50:39.647Z,100955.09
2019-01-18T03:51:41.589Z,100960.29
2019-01-18T03:52:43.535Z,100954.55
2019-01-18T03:53:45.534Z,100963.65
2019-01-18T03:54:47.478Z,100962.73
2019-01-18T03:55:49.560Z,100966.63
2019-01-18T03:56:51.556Z,100965.33
2019-01-18T03:57:53.487Z,100965.71
2019-01-18T03:58:55.434Z,100974.05
2019-01-18T03:59:58.664Z,100973.52
2019-01-18T04:01:00.662Z,100966.09
2019-01-18T04:02:02.625Z,100968.31
2019-01-18T04:03:04.639Z,100965.17
2019-01-18T04:04:06.590Z,100968.16
2019-01-18T04:05:12.131Z,100975.57
2019-01-18T04:06:14.077Z,100970.38
2019-01-18T04:07:16.015Z,100975.57
2019-01-18T04:08:17.981Z,100972.81
2019-01-18T04:09:19.990Z,100982.07
2019-01-18T04:10:21.928Z,100983.38
2019-01-18T04:11:23.877Z,100983.21
2019-01-18T04:12:25.798Z,100984.12
2019-01-18T04:13:27.733Z,100982.83
2019-01-18T04:14:29.682Z,100985.05
2019-01-18T04:15:31.801Z,100978.02
2019-01-18T04:16:33.933Z,100986.89
2019-01-18T04:17:35.850Z,100985.05
2019-01-18T04:18:37.805Z,100979.85
2019-01-18T04:19:39.832Z,100974.66
2019-01-18T04:20:41.836Z,100983.38
2019-01-18T04:21:43.781Z,100979.09
2019-01-18T04:22:45.736Z,100979.25
2019-01-18T04:23:48.352Z,100981.84
2019-01-18T04:24:50.310Z,100981.31
2019-01-18T04:25:52.345Z,100985.21
2019-01-18T04:26:54.291Z,100984.45
2019-01-18T04:27:56.306Z,100982.23
2019-01-18T04:28:58.238Z,100985.21
2019-01-18T04:30:00.253Z,100983.15
2019-01-18T04:31:02.222Z,100982.92
2019-01-18T04:32:04.263Z,100975.89
2019-01-18T04:33:06.203Z,100984.23
2019-01-18T04:34:08.146Z,100979.79
2019-01-18T04:35:10.179Z,100982.55
2019-01-18T04:36:12.133Z,100980.48
2019-01-18T04:37:14.090Z,100976.97
2019-01-18T04:38:16.026Z,100976.58
2019-01-18T04:39:17.957Z,100973.98
2019-01-18T04:40:19.922Z,100974.91
2019-01-18T04:41:21.866Z,100981.02
2019-01-18T04:42:23.799Z,100979.00
2019-01-18T04:43:25.730Z,100977.70
2019-01-18T04:44:27.683Z,100982.33
2019-01-18T04:45:29.630Z,100973.80
2019-01-18T04:46:31.745Z,100976.20
2019-01-18T04:47:35.885Z,100981.41
2019-01-18T04:48:37.813Z,100979.19
2019-01-18T04:49:39.755Z,100979.72
2019-01-18T04:50:41.700Z,100986.80
2019-01-18T04:51:43.650Z,100980.68
2019-01-18T04:52:45.665Z,100985.50
2019-01-18T04:53:47.601Z,100984.92
2019-01-18T04:54:49.545Z,100984.92
2019-01-18T04:55:51.516Z,100983.28
2019-01-18T04:56:53.465Z,100982.33
2019-01-18T04:57:55.477Z,100981.02
2019-01-18T04:58:57.415Z,100981.41
2019-01-18T04:59:59.481Z,100981.78
2019-01-18T05:01:01.457Z,100981.78
2019-01-18T05:02:03.428Z,100975.66
2019-01-18T05:03:05.977Z,100982.70
2019-01-18T05:04:07.985Z,100978.27
2019-01-18T05:05:09.924Z,100978.65
2019-01-18T05:06:11.881Z,100978.65
2019-01-18T05:07:13.816Z,100977.73
2019-01-18T05:08:15.893Z,100979.41
2019-01-18T05:09:17.822Z,100984.61
2019-01-18T05:10:19.767Z,100988.12
2019-01-18T05:11:21.737Z,100985.52
2019-01-18T05:12:23.687Z,100987.75
2019-01-18T05:13:25.614Z,100983.31
2019-01-18T05:14:27.562Z,100984.98
2019-01-18T05:15:29.504Z,100984.98
2019-01-18T05:16:31.681Z,100993.33
2019-01-18T05:17:33.622Z,100987.59
2019-01-18T05:18:35.575Z,100986.67
2019-01-18T05:19:37.512Z,100996.69
2019-01-18T05:20:39.461Z,100997.06
2019-01-18T05:21:41.402Z,100995.77
2019-01-18T05:22:43.359Z,100998.37
2019-01-18T05:23:45.307Z,100998.75
2019-01-18T05:24:49.464Z,100996.15
2019-01-18T05:25:50.933Z,100998.75
2019-01-18T05:26:52.885Z,100997.83
2019-01-18T05:27:54.862Z,101000.05
2019-01-18T05:28:56.847Z,101000.43
2019-01-18T05:29:58.786Z,100997.83
2019-01-18T05:31:00.747Z,100999.51
2019-01-18T05:32:02.793Z,100995.98
2019-01-18T05:33:08.137Z,101003.41
2019-01-18T05:34:12.307Z,100998.59
2019-01-18T05:35:14.261Z,101001.73
2019-01-18T05:36:16.230Z,100999.51
2019-01-18T05:37:18.182Z,101006.01
2019-01-18T05:38:20.203Z,101006.01
2019-01-18T05:39:22.197Z,101008.23
2019-01-18T05:40:24.141Z,101003.79
2019-01-18T05:41:26.161Z,101004.70
2019-01-18T05:42:28.125Z,101007.31
2019-01-18T05:43:30.058Z,101008.61
2019-01-18T05:44:32.035Z,101013.80
2019-01-18T05:45:34.095Z,101016.41
2019-01-18T05:46:37.532Z,101013.42
2019-01-18T05:47:39.906Z,101011.20
2019-01-18T05:48:41.862Z,101013.05
2019-01-18T05:49:43.802Z,101016.03
2019-01-18T05:50:45.839Z,101016.95
2019-01-18T05:51:47.886Z,101017.70
2019-01-18T05:52:49.851Z,101016.95
2019-01-18T05:53:51.938Z,101015.64
2019-01-18T05:54:53.884Z,101020.47
2019-01-18T05:55:55.863Z,101019.16
2019-01-18T05:56:57.916Z,101018.41
2019-01-18T05:57:59.980Z,101017.33
2019-01-18T05:59:01.914Z,101016.95
2019-01-18T06:00:03.873Z,101022.91
2019-01-18T06:01:10.520Z,101019.92
2019-01-18T06:02:12.714Z,101021.61
2019-01-18T06:03:14.668Z,101017.33
2019-01-18T06:04:16.676Z,101013.42
2019-01-18T06:05:18.685Z,101016.03
2019-01-18T06:06:20.671Z,101024.59
2019-01-18T06:07:22.682Z,101022.53
2019-01-18T06:08:24.634Z,101023.67
2019-01-18T06:09:26.580Z,101019.61
2019-01-18T06:10:28.574Z,101025.34
2019-01-18T06:11:30.560Z,101025.89
2019-01-18T06:12:32.496Z,101024.59
2019-01-18T06:13:34.505Z,101028.87
2019-01-18T06:14:36.444Z,101031.47
2019-01-18T06:15:38.486Z,101037.20
2019-01-18T06:16:40.428Z,101036.83
2019-01-18T06:17:42.390Z,101038.50
2019-01-18T06:18:45.384Z,101033.69
2019-01-18T06:19:47.346Z,101029.78
2019-01-18T06:20:49.297Z,101032.77
2019-01-18T06:21:51.340Z,101032.39
2019-01-18T06:22:53.284Z,101030.70
2019-01-18T06:23:55.255Z,101031.47
2019-01-18T06:24:57.249Z,101033.69
2019-01-18T06:25:59.178Z,101040.34
2019-01-18T06:27:01.131Z,101039.58
2019-01-18T06:28:03.062Z,101043.08
2019-01-18T06:29:04.992Z,101045.84
2019-01-18T06:30:06.952Z,101044.48
2019-01-18T06:31:08.962Z,101049.84
2019-01-18T06:32:10.907Z,101046.09
2019-01-18T06:33:12.850Z,101052.95
2019-01-18T06:34:14.830Z,101050.16
2019-01-18T06:35:16.752Z,101048.86
2019-01-18T06:36:18.700Z,101051.08
2019-01-18T06:37:20.728Z,101051.47
2019-01-18T06:38:22.750Z,101048.67
2019-01-18T06:39:24.680Z,101052.77
2019-01-18T06:40:26.616Z,101053.46
2019-01-18T06:41:41.075Z,101053.08
2019-01-18T06:42:43.017Z,101060.88
2019-01-18T06:43:44.953Z,101055.68
2019-01-18T06:44:46.903Z,101054.61
2019-01-18T06:45:48.855Z,101054.45
2019-01-18T06:46:50.889Z,101054.06
2019-01-18T06:47:52.826Z,101055.36
2019-01-18T06:48:55.852Z,101053.87
2019-01-18T06:49:57.799Z,101048.31
2019-01-18T06:51:01.343Z,101055.20
2019-01-18T06:52:03.375Z,101057.26
2019-01-18T06:53:05.303Z,101055.95
2019-01-18T06:54:09.458Z,101061.00
2019-01-18T06:55:11.387Z,101052.12
2019-01-18T06:56:13.321Z,101057.70
2019-01-18T06:57:15.290Z,101049.20
2019-01-18T06:58:17.322Z,101057.73
2019-01-18T06:59:20.816Z,101062.58
2019-01-18T07:00:24.452Z,101060.55
2019-01-18T07:01:26.389Z,101063.14
2019-01-18T07:02:28.325Z,101066.12
2019-01-18T07:03:30.268Z,101065.58
2019-01-18T07:04:32.228Z,101066.72
2019-01-18T07:05:34.165Z,101070.84
2019-01-18T07:06:36.116Z,101071.22
2019-01-18T07:07:38.076Z,101069.22
2019-01-18T07:08:40.020Z,101072.58
2019-01-18T07:09:41.972Z,101074.80
2019-01-18T07:10:43.920Z,101072.77
2019-01-18T07:11:45.883Z,101077.42
2019-01-18T07:12:47.911Z,101077.64
2019-01-18T07:13:49.842Z,101078.94
2019-01-18T07:14:51.789Z,101079.70
2019-01-18T07:15:57.751Z,101086.95
2019-01-18T07:16:59.731Z,101089.02
2019-01-18T07:18:01.662Z,101089.23
2019-01-18T07:19:03.605Z,101086.47
2019-01-18T07:20:05.560Z,101085.39
2019-01-18T07:21:07.998Z,101084.44
2019-01-18T07:22:09.952Z,101089.09
2019-01-18T07:23:11.933Z,101090.61
2019-01-18T07:24:13.942Z,101091.36
2019-01-18T07:25:19.098Z,101093.96
2019-01-18T07:26:21.042Z,101093.80
2019-01-18T07:27:22.979Z,101096.23
2019-01-18T07:28:24.914Z,101093.64
2019-01-18T07:29:26.875Z,101096.99
2019-01-18T07:30:29.825Z,101100.13
2019-01-18T07:31:31.851Z,101103.44
2019-01-18T07:32:33.804Z,101097.64
2019-01-18T07:33:35.757Z,101105.58
2019-01-18T07:34:37.835Z,101105.69
2019-01-18T07:35:39.798Z,101102.09
2019-01-18T07:36:43.465Z,101107.23
2019-01-18T07:37:45.430Z,101105.48
2019-01-18T07:38:47.433Z,101108.95
2019-01-18T07:39:49.376Z,101111.84
2019-01-18T07:40:51.308Z,101116.10
2019-01-18T07:41:53.519Z,101115.66
2019-01-18T07:42:55.471Z,101114.84
2019-01-18T07:43:59.621Z,101111.83
2019-01-18T07:45:01.553Z,101116.81
2019-01-18T07:46:03.505Z,101116.22
2019-01-18T07:47:05.459Z,101117.13
2019-01-18T07:48:07.598Z,101118.97
2019-01-18T07:49:09.529Z,101119.67
2019-01-18T07:50:11.481Z,101113.39
2019-01-18T07:51:13.431Z,101121.52
2019-01-18T07:52:15.404Z,101114.09
2019-01-18T07:53:17.347Z,101117.83
2019-01-18T07:54:19.307Z,101123.03
2019-01-18T07:55:23.016Z,101115.08
2019-01-18T07:56:27.251Z,101122.72
2019-01-18T07:57:29.216Z,101123.16
2019-01-18T07:58:31.437Z,101120.17
2019-01-18T07:59:33.384Z,101128.36
2019-01-18T08:00:35.467Z,101127.82
2019-01-18T08:01:37.481Z,101134.33
2019-01-18T08:02:39.451Z,101131.53
2019-01-18T08:03:41.399Z,101136.03
2019-01-18T08:04:43.329Z,101134.03
2019-01-18T08:05:45.327Z,101140.75
2019-01-18T08:06:47.349Z,101143.95
2019-01-18T08:07:49.381Z,101136.36
2019-01-18T08:08:51.313Z,101146.57
2019-01-18T08:09:53.251Z,101142.51
2019-01-18T08:10:57.831Z,101142.69
2019-01-18T08:11:59.850Z,101146.05
2019-01-18T08:13:01.817Z,101144.59
2019-01-18T08:14:03.783Z,101147.03
2019-01-18T08:15:05.728Z,101147.62
2019-01-18T08:16:07.691Z,101148.00
2019-01-18T08:17:09.665Z,101151.70
2019-01-18T08:18:11.621Z,101154.52
2019-01-18T08:19:13.627Z,101151.38
2019-01-18T08:20:15.639Z,101155.66
2019-01-18T08:21:17.854Z,101160.16
2019-01-18T08:22:19.793Z,101162.22
2019-01-18T08:23:21.734Z,101155.55
2019-01-18T08:24:23.665Z,101159.45
2019-01-18T08:25:25.610Z,101172.83
2019-01-18T08:26:27.635Z,101162.27
2019-01-18T08:27:29.586Z,101168.23
2019-01-18T08:28:31.610Z,101170.45
2019-01-18T08:29:33.548Z,101169.70
2019-01-18T08:30:36.968Z,101174.91
2019-01-18T08:31:38.910Z,101171.77
2019-01-18T08:32:40.877Z,101170.30
2019-01-18T08:33:43.328Z,101175.87
2019-01-18T08:34:45.299Z,101175.50
2019-01-18T08:35:47.829Z,101178.86
2019-01-18T08:36:49.843Z,101173.28
2019-01-18T08:37:51.794Z,101175.87
2019-01-18T08:38:53.734Z,101180.86
2019-01-18T08:39:55.686Z,101182.87
2019-01-18T08:40:58.939Z,101178.79
2019-01-18T08:42:00.961Z,101181.34
2019-01-18T08:43:02.943Z,101184.27
2019-01-18T08:44:05.439Z,101184.03
2019-01-18T08:45:08.586Z,101189.34
2019-01-18T08:46:10.542Z,101189.70
2019-01-18T08:47:12.488Z,101190.41
2019-01-18T08:48:14.449Z,101192.82
2019-01-18T08:49:16.406Z,101194.45
2019-01-18T08:50:18.351Z,101197.91
2019-01-18T08:51:20.332Z,101195.85
2019-01-18T08:52:22.250Z,101198.23
2019-01-18T08:53:24.211Z,101199.36
2019-01-18T08:54:26.150Z,101193.39
2019-01-18T08:55:28.098Z,101199.30
2019-01-18T08:56:30.050Z,101196.86
2019-01-18T08:57:31.979Z,101200.16
2019-01-18T08:58:37.380Z,101200.16
2019-01-18T08:59:40.083Z,101197.18
2019-01-18T09:00:42.029Z,101198.10
2019-01-18T09:01:44.000Z,101197.56
2019-01-18T09:02:46.027Z,101204.45
2019-01-18T09:03:47.995Z,101200.00
2019-01-18T09:04:49.932Z,101206.88
2019-01-18T09:05:52.148Z,101211.00
2019-01-18T09:06:54.097Z,101211.00
2019-01-18T09:07:56.057Z,101212.52
2019-01-18T09:09:01.895Z,101212.36
2019-01-18T09:10:03.992Z,101212.74
2019-01-18T09:11:05.995Z,101218.67
2019-01-18T09:12:07.932Z,101215.91
2019-01-18T09:13:09.898Z,101214.06
2019-01-18T09:14:11.927Z,101218.72
2019-01-18T09:15:13.870Z,101221.54
2019-01-18T09:16:15.810Z,101226.58
2019-01-18T09:17:17.809Z,101221.05
2019-01-18T09:18:19.778Z,101220.51
2019-01-18T09:19:25.605Z,101225.52
2019-01-18T09:20:27.576Z,101229.79
2019-01-18T09:21:29.523Z,101227.95
2019-01-18T09:22:31.562Z,101227.75
2019-01-18T09:23:33.542Z,101233.70
2019-01-18T09:24:35.492Z,101230.94
2019-01-18T09:25:37.598Z,101226.34
2019-01-18T09:26:39.546Z,101229.31
2019-01-18T09:27:41.501Z,101233.05
2019-01-18T09:28:43.490Z,101236.79
2019-01-18T09:29:45.448Z,101232.31
2019-01-18T09:30:47.450Z,101236.59
2019-01-18T09:31:49.423Z,101234.20
2019-01-18T09:32:51.372Z,101233.66
2019-01-18T09:33:53.334Z,101240.92
2019-01-18T09:34:55.302Z,101242.97
2019-01-18T09:35:57.244Z,101241.13
2019-01-18T09:36:59.195Z,101242.27
2019-01-18T09:38:04.750Z,101241.34
2019-01-18T09:39:06.718Z,101244.70
2019-01-18T09:40:08.657Z,101251.20
2019-01-18T09:41:10.602Z,101249.36
2019-01-18T09:42:12.537Z,101253.80
2019-01-18T09:43:14.480Z,101256.02
2019-01-18T09:44:18.416Z,101252.66
2019-01-18T09:45:20.133Z,101249.86
2019-01-18T09:46:22.078Z,101253.16
2019-01-18T09:47:24.040Z,101247.37
2019-01-18T09:48:26.071Z,101249.41
2019-01-18T09:49:28.023Z,101250.45
2019-01-18T09:50:29.978Z,101256.02
2019-01-18T09:51:31.919Z,101253.39
2019-01-18T09:52:33.924Z,101251.50
2019-01-18T09:53:35.927Z,101260.17
2019-01-18T09:54:37.938Z,101257.73
2019-01-18T09:55:39.886Z,101259.95
2019-01-18T09:56:41.833Z,101256.96
2019-01-18T09:57:43.769Z,101261.78
2019-01-18T09:58:46.353Z,101264.55
2019-01-18T09:59:48.514Z,101263.95
2019-01-18T10:00:52.134Z,101260.59
2019-01-18T10:01:54.163Z,101262.06
2019-01-18T10:02:56.126Z,101258.53
2019-01-18T10:03:58.092Z,101260.76
2019-01-18T10:05:00.168Z,101262.60
2019-01-18T10:06:02.203Z,101266.12
2019-01-18T10:07:06.419Z,101263.14
2019-01-18T10:08:09.793Z,101267.05
2019-01-18T10:09:11.997Z,101275.98
2019-01-18T10:10:14.019Z,101271.16
2019-01-18T10:11:15.960Z,101269.70
2019-01-18T10:12:17.911Z,101270.46
2019-01-18T10:13:19.845Z,101275.13
2019-01-18T10:14:21.786Z,101276.80
2019-01-18T10:15:23.851Z,101278.86
2019-01-18T10:16:25.801Z,101286.66
2019-01-18T10:17:27.979Z,101280.00
2019-01-18T10:18:29.927Z,101282.40
2019-01-18T10:19:31.866Z,101281.85
2019-01-18T10:20:33.837Z,101277.25
2019-01-18T10:21:38.751Z,101281.91
2019-01-18T10:22:40.702Z,101284.89
2019-01-18T10:23:42.653Z,101284.18
2019-01-18T10:24:47.224Z,101277.89
2019-01-18T10:25:49.277Z,101283.47
2019-01-18T10:26:51.224Z,101284.98
2019-01-18T10:27:53.264Z,101285.33
2019-01-18T10:28:56.541Z,101285.92
2019-01-18T10:29:58.545Z,101283.86
2019-01-18T10:31:00.513Z,101284.80
2019-01-18T10:32:02.450Z,101286.86
2019-01-18T10:33:04.413Z,101282.41
2019-01-18T10:34:06.352Z,101283.92
2019-01-18T10:35:08.315Z,101281.70
2019-01-18T10:36:10.385Z,101286.36
2019-01-18T10:37:12.396Z,101287.84
2019-01-18T10:38:14.338Z,101284.31
2019-01-18T10:39:16.285Z,101285.45
2019-01-18T10:40:20.578Z,101282.30
2019-01-18T10:41:22.563Z,101287.13
2019-01-18T10:42:24.600Z,101284.73
2019-01-18T10:43:27.466Z,101283.44
2019-01-18T10:44:30.042Z,101282.35
2019-01-18T10:45:31.980Z,101279.38
2019-01-18T10:46:33.957Z,101286.25
2019-01-18T10:47:35.911Z,101287.93
2019-01-18T10:48:38.878Z,101281.43
2019-01-18T10:49:40.881Z,101279.00
2019-01-18T10:50:42.850Z,101278.62
2019-01-18T10:51:44.858Z,101284.15
2019-01-18T10:52:46.811Z,101280.41
2019-01-18T10:53:48.751Z,101288.58
2019-01-18T10:54:50.863Z,101288.16
2019-01-18T10:55:52.813Z,101285.16
2019-01-18T10:56:54.805Z,101287.00
2019-01-18T10:57:56.767Z,101291.06
2019-01-18T10:58:58.699Z,101286.78
2019-01-18T11:00:00.661Z,101290.63
2019-01-18T11:01:02.663Z,101290.03
2019-01-18T11:02:07.239Z,101290.20
2019-01-18T11:03:09.133Z,101283.90
2019-01-18T11:04:11.246Z,101290.56
2019-01-18T11:05:13.198Z,101295.39
2019-01-18T11:06:15.223Z,101289.43
2019-01-18T11:07:17.287Z,101293.66
2019-01-18T11:08:19.305Z,101295.50
2019-01-18T11:09:21.253Z,101294.36
2019-01-18T11:10:23.286Z,101294.53
2019-01-18T11:11:25.224Z,101298.43
2019-01-18T11:12:27.190Z,101295.45
2019-01-18T11:13:29.135Z,101301.03
2019-01-18T11:14:31.615Z,101300.48
2019-01-18T11:15:35.997Z,101304.94
2019-01-18T11:16:37.237Z,101304.55
2019-01-18T11:17:39.707Z,101302.33
2019-01-18T11:18:44.225Z,101307.91
2019-01-18T11:19:46.174Z,101307.75
2019-01-18T11:20:48.143Z,101304.98
2019-01-18T11:21:50.326Z,101308.72
2019-01-18T11:22:52.429Z,101309.48
2019-01-18T11:23:54.397Z,101310.78
2019-01-18T11:24:56.398Z,101308.02
2019-01-18T11:25:58.353Z,101305.80
2019-01-18T11:27:00.281Z,101313.05
2019-01-18T11:28:02.302Z,101312.52
2019-01-18T11:29:04.269Z,101313.61
2019-01-18T11:30:06.276Z,101310.84
2019-01-18T11:31:08.301Z,101313.83
2019-01-18T11:32:13.744Z,101306.78
2019-01-18T11:33:14.076Z,101310.52
2019-01-18T11:34:16.013Z,101312.20
2019-01-18T11:35:20.005Z,101311.11
2019-01-18T11:36:22.214Z,101315.02
2019-01-18T11:37:24.172Z,101320.42
2019-01-18T11:38:26.220Z,101315.06
2019-01-18T11:39:28.159Z,101314.31
2019-01-18T11:40:30.191Z,101313.39
2019-01-18T11:41:32.142Z,101317.67
2019-01-18T11:42:34.227Z,101313.95
2019-01-18T11:43:36.253Z,101312.27
2019-01-18T11:44:40.253Z,101313.41
2019-01-18T11:45:42.223Z,101318.06
2019-01-18T11:46:44.169Z,101317.52
2019-01-18T11:47:46.106Z,101315.30
2019-01-18T11:48:50.387Z,101311.06
2019-01-18T11:49:51.744Z,101314.04